sensor_id;sensor_type;location;lat;lon;timestamp;pressure;altitude;pressure_sealevel;temperature;humidity
76195;BME280;64964;48.694;21.206;2023-11-19T00:00:03;98483.88;;;3.33;63.55
76195;BME280;64964;48.694;21.206;2023-11-19T00:02:29;98469.00;;;3.22;63.36
76195;BME280;64964;48.694;21.206;2023-11-19T00:04:55;98504.47;;;3.38;63.50
76195;BME280;64964;48.694;21.206;2023-11-19T00:07:20;98485.06;;;3.29;63.53
76195;BME280;64964;48.694;21.206;2023-11-19T00:09:45;98466.13;;;3.14;63.74
76195;BME280;64964;48.694;21.206;2023-11-19T00:12:11;98496.63;;;3.38;63.79
76195;BME280;64964;48.694;21.206;2023-11-19T00:14:36;98472.00;;;3.29;63.75
76195;BME280;64964;48.694;21.206;2023-11-19T00:17:01;98483.47;;;3.39;63.77
76195;BME280;64964;48.694;21.206;2023-11-19T00:19:29;98494.63;;;3.41;63.55
76195;BME280;64964;48.694;21.206;2023-11-19T00:21:54;98487.13;;;3.37;63.55
76195;BME280;64964;48.694;21.206;2023-11-19T00:24:19;98455.34;;;3.19;63.53
76195;BME280;64964;48.694;21.206;2023-11-19T00:26:45;98473.06;;;3.27;63.41
76195;BME280;64964;48.694;21.206;2023-11-19T00:29:11;98493.78;;;3.41;63.85
76195;BME280;64964;48.694;21.206;2023-11-19T00:31:38;98487.72;;;3.40;63.76
76195;BME280;64964;48.694;21.206;2023-11-19T00:34:04;98485.25;;;3.39;63.51
76195;BME280;64964;48.694;21.206;2023-11-19T00:36:31;98471.16;;;3.29;63.64
76195;BME280;64964;48.694;21.206;2023-11-19T00:38:56;98478.03;;;3.30;63.72
76195;BME280;64964;48.694;21.206;2023-11-19T00:41:22;98480.44;;;3.33;63.73
76195;BME280;64964;48.694;21.206;2023-11-19T00:43:47;98475.44;;;3.30;63.82
76195;BME280;64964;48.694;21.206;2023-11-19T00:46:14;98471.91;;;3.31;63.82
76195;BME280;64964;48.694;21.206;2023-11-19T00:48:40;98471.66;;;3.34;63.69
76195;BME280;64964;48.694;21.206;2023-11-19T00:51:05;98480.44;;;3.33;63.72
76195;BME280;64964;48.694;21.206;2023-11-19T00:53:31;98480.66;;;3.30;63.86
76195;BME280;64964;48.694;21.206;2023-11-19T00:55:57;98469.94;;;3.21;63.87
76195;BME280;64964;48.694;21.206;2023-11-19T00:58:22;98479.84;;;3.29;63.85
76195;BME280;64964;48.694;21.206;2023-11-19T01:00:48;98471.50;;;3.24;63.82
76195;BME280;64964;48.694;21.206;2023-11-19T01:03:13;98469.09;;;3.21;63.91
76195;BME280;64964;48.694;21.206;2023-11-19T01:05:41;98476.50;;;3.27;64.05
76195;BME280;64964;48.694;21.206;2023-11-19T01:08:06;98479.94;;;3.28;63.76
76195;BME280;64964;48.694;21.206;2023-11-19T01:10:31;98468.88;;;3.24;63.67
76195;BME280;64964;48.694;21.206;2023-11-19T01:12:57;98467.94;;;3.25;64.02
76195;BME280;64964;48.694;21.206;2023-11-19T01:15:23;98449.50;;;3.15;63.84
76195;BME280;64964;48.694;21.206;2023-11-19T01:17:48;98468.88;;;3.24;63.82
76195;BME280;64964;48.694;21.206;2023-11-19T01:20:14;98452.94;;;3.16;63.92
76195;BME280;64964;48.694;21.206;2023-11-19T01:22:40;98455.53;;;3.16;63.89
76195;BME280;64964;48.694;21.206;2023-11-19T01:25:06;98462.09;;;3.21;63.92
76195;BME280;64964;48.694;21.206;2023-11-19T01:27:31;98464.00;;;3.19;63.91
76195;BME280;64964;48.694;21.206;2023-11-19T01:29:59;98459.47;;;3.21;64.01
76195;BME280;64964;48.694;21.206;2023-11-19T01:32:25;98463.88;;;3.21;63.94
76195;BME280;64964;48.694;21.206;2023-11-19T01:34:50;98461.38;;;3.19;64.10
76195;BME280;64964;48.694;21.206;2023-11-19T01:37:16;98459.13;;;3.15;64.10
76195;BME280;64964;48.694;21.206;2023-11-19T01:39:44;98451.06;;;3.18;64.31
76195;BME280;64964;48.694;21.206;2023-11-19T01:42:10;98451.97;;;3.17;64.16
76195;BME280;64964;48.694;21.206;2023-11-19T01:44:37;98424.66;;;3.10;64.19
76195;BME280;64964;48.694;21.206;2023-11-19T01:47:03;98429.63;;;3.13;64.23
76195;BME280;64964;48.694;21.206;2023-11-19T01:49:30;98400.59;;;2.93;64.21
76195;BME280;64964;48.694;21.206;2023-11-19T01:51:57;98418.00;;;3.06;64.19
76195;BME280;64964;48.694;21.206;2023-11-19T01:54:23;98407.53;;;3.06;64.04
76195;BME280;64964;48.694;21.206;2023-11-19T01:56:48;98418.34;;;3.12;64.26
76195;BME280;64964;48.694;21.206;2023-11-19T01:59:14;98420.97;;;3.12;64.20
76195;BME280;64964;48.694;21.206;2023-11-19T02:01:41;98423.59;;;3.12;64.21
76195;BME280;64964;48.694;21.206;2023-11-19T02:04:08;98411.19;;;3.03;64.26
76195;BME280;64964;48.694;21.206;2023-11-19T02:06:34;98419.66;;;3.07;64.27
76195;BME280;64964;48.694;21.206;2023-11-19T02:09:01;98413.69;;;3.05;64.51
76195;BME280;64964;48.694;21.206;2023-11-19T02:11:33;98418.22;;;3.03;64.48
76195;BME280;64964;48.694;21.206;2023-11-19T02:13:58;98406.09;;;3.02;64.41
76195;BME280;64964;48.694;21.206;2023-11-19T02:16:24;98399.09;;;3.02;64.49
76195;BME280;64964;48.694;21.206;2023-11-19T02:18:49;98400.97;;;3.00;64.53
76195;BME280;64964;48.694;21.206;2023-11-19T02:21:14;98411.53;;;2.98;64.53
76195;BME280;64964;48.694;21.206;2023-11-19T02:23:40;98398.34;;;3.00;64.29
76195;BME280;64964;48.694;21.206;2023-11-19T02:26:33;98396.22;;;2.94;64.90
76195;BME280;64964;48.694;21.206;2023-11-19T02:29:04;98393.38;;;2.97;64.98
76195;BME280;64964;48.694;21.206;2023-11-19T02:31:29;98401.09;;;2.98;64.86
76195;BME280;64964;48.694;21.206;2023-11-19T02:33:54;98383.25;;;2.92;65.01
76195;BME280;64964;48.694;21.206;2023-11-19T02:36:20;98383.53;;;3.00;64.78
76195;BME280;64964;48.694;21.206;2023-11-19T02:38:46;98366.66;;;2.93;64.72
76195;BME280;64964;48.694;21.206;2023-11-19T02:41:13;98362.03;;;2.97;64.71
76195;BME280;64964;48.694;21.206;2023-11-19T02:43:39;98372.16;;;3.02;64.71
76195;BME280;64964;48.694;21.206;2023-11-19T02:46:05;98360.59;;;2.93;64.40
76195;BME280;64964;48.694;21.206;2023-11-19T02:48:34;98362.75;;;2.99;64.52
76195;BME280;64964;48.694;21.206;2023-11-19T02:51:03;98333.94;;;2.77;64.65
76195;BME280;64964;48.694;21.206;2023-11-19T02:53:29;98365.47;;;2.97;64.61
76195;BME280;64964;48.694;21.206;2023-11-19T02:55:55;98352.03;;;2.91;64.85
76195;BME280;64964;48.694;21.206;2023-11-19T02:58:27;98358.81;;;2.93;64.51
76195;BME280;64964;48.694;21.206;2023-11-19T03:00:53;98365.13;;;3.02;64.86
76195;BME280;64964;48.694;21.206;2023-11-19T03:03:34;98352.19;;;3.00;64.65
76195;BME280;64964;48.694;21.206;2023-11-19T03:06:07;98361.09;;;2.98;64.66
76195;BME280;64964;48.694;21.206;2023-11-19T03:08:36;98343.75;;;2.97;64.87
76195;BME280;64964;48.694;21.206;2023-11-19T03:11:02;98339.47;;;2.96;64.77
76195;BME280;64964;48.694;21.206;2023-11-19T03:13:27;98323.31;;;2.91;64.63
76195;BME280;64964;48.694;21.206;2023-11-19T03:15:53;98333.41;;;2.95;64.50
76195;BME280;64964;48.694;21.206;2023-11-19T03:18:19;98340.63;;;2.92;64.83
76195;BME280;64964;48.694;21.206;2023-11-19T03:20:48;98322.09;;;2.84;64.93
76195;BME280;64964;48.694;21.206;2023-11-19T03:23:15;98332.81;;;2.92;64.51
76195;BME280;64964;48.694;21.206;2023-11-19T03:25:40;98327.09;;;2.87;64.88
76195;BME280;64964;48.694;21.206;2023-11-19T03:28:05;98294.38;;;2.70;64.60
76195;BME280;64964;48.694;21.206;2023-11-19T03:30:31;98326.13;;;2.88;65.05
76195;BME280;64964;48.694;21.206;2023-11-19T03:32:57;98321.16;;;2.85;65.19
76195;BME280;64964;48.694;21.206;2023-11-19T03:35:23;98319.03;;;2.90;65.19
76195;BME280;64964;48.694;21.206;2023-11-19T03:37:49;98324.13;;;2.91;65.06
76195;BME280;64964;48.694;21.206;2023-11-19T03:40:14;98312.25;;;2.87;65.07
76195;BME280;64964;48.694;21.206;2023-11-19T03:42:40;98318.22;;;2.89;65.05
76195;BME280;64964;48.694;21.206;2023-11-19T03:45:08;98306.31;;;2.85;65.20
76195;BME280;64964;48.694;21.206;2023-11-19T03:47:34;98303.81;;;2.84;65.02
76195;BME280;64964;48.694;21.206;2023-11-19T03:50:00;98288.72;;;2.76;64.97
76195;BME280;64964;48.694;21.206;2023-11-19T03:52:26;98303.59;;;2.87;65.22
76195;BME280;64964;48.694;21.206;2023-11-19T03:54:54;98299.19;;;2.87;65.13
76195;BME280;64964;48.694;21.206;2023-11-19T03:57:21;98300.38;;;2.83;65.01
76195;BME280;64964;48.694;21.206;2023-11-19T03:59:46;98278.84;;;2.68;65.30
76195;BME280;64964;48.694;21.206;2023-11-19T04:02:12;98307.16;;;2.86;65.13
76195;BME280;64964;48.694;21.206;2023-11-19T04:04:37;98295.97;;;2.84;65.14
76195;BME280;64964;48.694;21.206;2023-11-19T04:07:04;98290.75;;;2.84;65.29
76195;BME280;64964;48.694;21.206;2023-11-19T04:09:30;98293.28;;;2.85;65.42
76195;BME280;64964;48.694;21.206;2023-11-19T04:11:56;98289.31;;;2.80;65.27
76195;BME280;64964;48.694;21.206;2023-11-19T04:14:22;98305.38;;;2.86;65.33
76195;BME280;64964;48.694;21.206;2023-11-19T04:16:47;98292.28;;;2.75;65.28
76195;BME280;64964;48.694;21.206;2023-11-19T04:19:13;98294.19;;;2.73;65.28
76195;BME280;64964;48.694;21.206;2023-11-19T04:21:41;98304.16;;;2.79;65.42
76195;BME280;64964;48.694;21.206;2023-11-19T04:24:08;98297.88;;;2.82;65.45
76195;BME280;64964;48.694;21.206;2023-11-19T04:26:42;98305.59;;;2.83;65.25
76195;BME280;64964;48.694;21.206;2023-11-19T04:29:15;98296.22;;;2.81;65.51
76195;BME280;64964;48.694;21.206;2023-11-19T04:31:44;98288.47;;;2.79;65.32
76195;BME280;64964;48.694;21.206;2023-11-19T04:34:10;98265.41;;;2.62;65.24
76195;BME280;64964;48.694;21.206;2023-11-19T04:36:36;98278.84;;;2.68;65.33
76195;BME280;64964;48.694;21.206;2023-11-19T04:39:03;98288.00;;;2.74;65.33
76195;BME280;64964;48.694;21.206;2023-11-19T04:41:33;98287.28;;;2.72;65.23
76195;BME280;64964;48.694;21.206;2023-11-19T04:43:58;98275.41;;;2.68;65.44
76195;BME280;64964;48.694;21.206;2023-11-19T04:46:23;98252.13;;;2.65;65.40
76195;BME280;64964;48.694;21.206;2023-11-19T04:48:49;98225.78;;;2.57;65.45
76195;BME280;64964;48.694;21.206;2023-11-19T04:51:15;98241.91;;;2.62;65.28
76195;BME280;64964;48.694;21.206;2023-11-19T04:53:40;98248.31;;;2.58;65.32
76195;BME280;64964;48.694;21.206;2023-11-19T04:56:09;98246.78;;;2.55;65.68
76195;BME280;64964;48.694;21.206;2023-11-19T04:58:35;98239.88;;;2.54;65.58
76195;BME280;64964;48.694;21.206;2023-11-19T05:01:02;98223.84;;;2.47;65.65
76195;BME280;64964;48.694;21.206;2023-11-19T05:03:28;98234.66;;;2.54;65.44
76195;BME280;64964;48.694;21.206;2023-11-19T05:05:54;98230.50;;;2.52;65.60
76195;BME280;64964;48.694;21.206;2023-11-19T05:08:19;98220.16;;;2.50;65.92
76195;BME280;64964;48.694;21.206;2023-11-19T05:10:44;98217.91;;;2.45;65.59
76195;BME280;64964;48.694;21.206;2023-11-19T05:13:10;98211.03;;;2.44;65.53
76195;BME280;64964;48.694;21.206;2023-11-19T05:15:35;98224.41;;;2.40;65.44
76195;BME280;64964;48.694;21.206;2023-11-19T05:18:00;98220.84;;;2.41;65.79
76195;BME280;64964;48.694;21.206;2023-11-19T05:20:26;98214.94;;;2.39;65.66
76195;BME280;64964;48.694;21.206;2023-11-19T05:22:51;98223.69;;;2.38;65.80
76195;BME280;64964;48.694;21.206;2023-11-19T05:25:18;98219.53;;;2.35;65.63
76195;BME280;64964;48.694;21.206;2023-11-19T05:27:45;98205.53;;;2.36;65.92
76195;BME280;64964;48.694;21.206;2023-11-19T05:30:10;98196.28;;;2.32;65.70
76195;BME280;64964;48.694;21.206;2023-11-19T05:32:36;98189.63;;;2.28;65.92
76195;BME280;64964;48.694;21.206;2023-11-19T05:35:02;98179.66;;;2.22;65.86
76195;BME280;64964;48.694;21.206;2023-11-19T05:37:27;98189.50;;;2.30;65.84
76195;BME280;64964;48.694;21.206;2023-11-19T05:39:53;98192.97;;;2.30;65.78
76195;BME280;64964;48.694;21.206;2023-11-19T05:42:18;98197.44;;;2.28;66.07
76195;BME280;64964;48.694;21.206;2023-11-19T05:44:43;98208.91;;;2.25;66.07
76195;BME280;64964;48.694;21.206;2023-11-19T05:47:09;98206.56;;;2.22;66.16
76195;BME280;64964;48.694;21.206;2023-11-19T05:49:34;98201.06;;;2.14;66.21
76195;BME280;64964;48.694;21.206;2023-11-19T05:52:00;98211.03;;;2.20;66.15
76195;BME280;64964;48.694;21.206;2023-11-19T05:54:28;98194.28;;;2.12;66.18
76195;BME280;64964;48.694;21.206;2023-11-19T05:56:53;98209.38;;;2.19;66.22
76195;BME280;64964;48.694;21.206;2023-11-19T05:59:19;98215.44;;;2.20;66.27
76195;BME280;64964;48.694;21.206;2023-11-19T06:01:45;98214.81;;;2.16;66.51
76195;BME280;64964;48.694;21.206;2023-11-19T06:04:10;98220.03;;;2.16;66.17
76195;BME280;64964;48.694;21.206;2023-11-19T06:06:36;98225.50;;;2.13;66.46
76195;BME280;64964;48.694;21.206;2023-11-19T06:09:02;98221.44;;;2.09;66.52
76195;BME280;64964;48.694;21.206;2023-11-19T06:11:28;98219.66;;;2.10;66.49
76195;BME280;64964;48.694;21.206;2023-11-19T06:13:54;98203.94;;;1.98;66.54
76195;BME280;64964;48.694;21.206;2023-11-19T06:16:19;98223.53;;;2.04;66.84
76195;BME280;64964;48.694;21.206;2023-11-19T06:18:44;98217.59;;;2.02;66.34
76195;BME280;64964;48.694;21.206;2023-11-19T06:21:11;98210.09;;;1.97;66.25
76195;BME280;64964;48.694;21.206;2023-11-19T06:23:37;98232.91;;;2.07;66.37
76195;BME280;64964;48.694;21.206;2023-11-19T06:26:02;98220.41;;;1.99;66.31
76195;BME280;64964;48.694;21.206;2023-11-19T06:28:28;98226.13;;;2.04;66.65
76195;BME280;64964;48.694;21.206;2023-11-19T06:30:53;98225.09;;;2.07;66.37
76195;BME280;64964;48.694;21.206;2023-11-19T06:33:18;98226.88;;;2.06;66.46
76195;BME280;64964;48.694;21.206;2023-11-19T06:35:44;98203.53;;;1.92;66.51
76195;BME280;64964;48.694;21.206;2023-11-19T06:38:10;98221.97;;;2.02;66.32
76195;BME280;64964;48.694;21.206;2023-11-19T06:40:35;98229.13;;;2.11;66.21
76195;BME280;64964;48.694;21.206;2023-11-19T06:43:01;98241.00;;;2.15;66.15
76195;BME280;64964;48.694;21.206;2023-11-19T06:45:29;98230.59;;;2.15;66.21
76195;BME280;64964;48.694;21.206;2023-11-19T06:47:54;98243.91;;;2.23;66.15
76195;BME280;64964;48.694;21.206;2023-11-19T06:50:20;98234.09;;;2.27;66.05
76195;BME280;64964;48.694;21.206;2023-11-19T06:52:46;98236.56;;;2.28;66.09
76195;BME280;64964;48.694;21.206;2023-11-19T06:55:11;98220.09;;;2.28;65.98
76195;BME280;64964;48.694;21.206;2023-11-19T06:57:36;98213.91;;;2.29;65.82
76195;BME280;64964;48.694;21.206;2023-11-19T07:00:02;98186.88;;;2.30;66.07
76195;BME280;64964;48.694;21.206;2023-11-19T07:02:28;98202.47;;;2.42;66.05
76195;BME280;64964;48.694;21.206;2023-11-19T07:04:53;98210.91;;;2.46;66.15
76195;BME280;64964;48.694;21.206;2023-11-19T07:07:19;98207.13;;;2.50;65.71
76195;BME280;64964;48.694;21.206;2023-11-19T07:09:45;98193.97;;;2.52;65.76
76195;BME280;64964;48.694;21.206;2023-11-19T07:12:10;98198.94;;;2.43;65.93
76195;BME280;64964;48.694;21.206;2023-11-19T07:14:36;98211.41;;;2.51;65.92
76195;BME280;64964;48.694;21.206;2023-11-19T07:17:01;98232.38;;;2.49;66.04
76195;BME280;64964;48.694;21.206;2023-11-19T07:19:27;98240.44;;;2.46;65.87
76195;BME280;64964;48.694;21.206;2023-11-19T07:21:52;98229.28;;;2.44;66.23
76195;BME280;64964;48.694;21.206;2023-11-19T07:24:20;98221.25;;;2.47;65.86
76195;BME280;64964;48.694;21.206;2023-11-19T07:26:47;98215.06;;;2.48;65.84
76195;BME280;64964;48.694;21.206;2023-11-19T07:29:13;98194.97;;;2.38;65.89
76195;BME280;64964;48.694;21.206;2023-11-19T07:31:38;98215.69;;;2.52;65.96
76195;BME280;64964;48.694;21.206;2023-11-19T07:34:04;98212.84;;;2.55;65.78
76195;BME280;64964;48.694;21.206;2023-11-19T07:36:31;98202.97;;;2.47;65.69
76195;BME280;64964;48.694;21.206;2023-11-19T07:38:58;98200.59;;;2.44;65.60
76195;BME280;64964;48.694;21.206;2023-11-19T07:41:23;98187.16;;;2.38;65.71
76195;BME280;64964;48.694;21.206;2023-11-19T07:43:50;98199.06;;;2.53;65.79
76195;BME280;64964;48.694;21.206;2023-11-19T07:46:17;98153.22;;;2.38;65.45
76195;BME280;64964;48.694;21.206;2023-11-19T07:48:45;98170.59;;;2.50;65.10
76195;BME280;64964;48.694;21.206;2023-11-19T07:51:12;98176.72;;;2.38;65.31
76195;BME280;64964;48.694;21.206;2023-11-19T07:53:38;98157.91;;;2.21;65.66
76195;BME280;64964;48.694;21.206;2023-11-19T07:56:04;98163.75;;;2.25;65.50
76195;BME280;64964;48.694;21.206;2023-11-19T07:58:30;98141.91;;;2.15;65.47
76195;BME280;64964;48.694;21.206;2023-11-19T08:00:56;98167.91;;;2.28;65.67
76195;BME280;64964;48.694;21.206;2023-11-19T08:03:21;98150.69;;;2.25;65.67
76195;BME280;64964;48.694;21.206;2023-11-19T08:05:47;98162.97;;;2.36;65.51
76195;BME280;64964;48.694;21.206;2023-11-19T08:08:13;98149.44;;;2.31;65.49
76195;BME280;64964;48.694;21.206;2023-11-19T08:10:39;98182.31;;;2.44;65.76
76195;BME280;64964;48.694;21.206;2023-11-19T08:13:05;98160.28;;;2.48;65.57
76195;BME280;64964;48.694;21.206;2023-11-19T08:15:31;98129.88;;;2.36;65.42
76195;BME280;64964;48.694;21.206;2023-11-19T08:17:56;98101.50;;;2.20;65.49
76195;BME280;64964;48.694;21.206;2023-11-19T08:20:22;98163.63;;;2.62;65.46
76195;BME280;64964;48.694;21.206;2023-11-19T08:22:47;98160.19;;;2.61;65.66
76195;BME280;64964;48.694;21.206;2023-11-19T08:25:13;98151.19;;;2.65;65.71
76195;BME280;64964;48.694;21.206;2023-11-19T08:27:38;98143.56;;;2.62;65.40
76195;BME280;64964;48.694;21.206;2023-11-19T08:30:05;98150.00;;;2.69;65.64
76195;BME280;64964;48.694;21.206;2023-11-19T08:32:31;98164.25;;;2.77;65.63
76195;BME280;64964;48.694;21.206;2023-11-19T08:34:59;98156.28;;;2.78;65.52
76195;BME280;64964;48.694;21.206;2023-11-19T08:37:24;98148.25;;;2.81;65.17
76195;BME280;64964;48.694;21.206;2023-11-19T08:39:50;98138.25;;;2.75;65.36
76195;BME280;64964;48.694;21.206;2023-11-19T08:42:18;98125.78;;;2.67;65.70
76195;BME280;64964;48.694;21.206;2023-11-19T08:44:48;98137.41;;;2.74;65.99
76195;BME280;64964;48.694;21.206;2023-11-19T08:47:15;98134.59;;;2.78;65.62
76195;BME280;64964;48.694;21.206;2023-11-19T08:49:43;98148.47;;;2.78;65.94
76195;BME280;64964;48.694;21.206;2023-11-19T08:52:08;98146.47;;;2.82;65.72
76195;BME280;64964;48.694;21.206;2023-11-19T08:54:34;98145.25;;;2.74;65.27
76195;BME280;64964;48.694;21.206;2023-11-19T08:56:59;98148.22;;;2.70;65.78
76195;BME280;64964;48.694;21.206;2023-11-19T08:59:25;98152.59;;;2.69;65.85
76195;BME280;64964;48.694;21.206;2023-11-19T09:01:51;98142.88;;;2.60;65.64
76195;BME280;64964;48.694;21.206;2023-11-19T09:04:16;98152.56;;;2.47;66.09
76195;BME280;64964;48.694;21.206;2023-11-19T09:06:41;98140.53;;;2.33;66.36
76195;BME280;64964;48.694;21.206;2023-11-19T09:09:08;98151.47;;;2.38;66.54
76195;BME280;64964;48.694;21.206;2023-11-19T09:11:33;98148.75;;;2.40;66.65
76195;BME280;64964;48.694;21.206;2023-11-19T09:13:58;98108.38;;;2.21;66.50
76195;BME280;64964;48.694;21.206;2023-11-19T09:16:24;98112.19;;;2.29;66.79
76195;BME280;64964;48.694;21.206;2023-11-19T09:18:49;98115.28;;;2.34;66.33
76195;BME280;64964;48.694;21.206;2023-11-19T09:21:15;98118.84;;;2.33;67.06
76195;BME280;64964;48.694;21.206;2023-11-19T09:23:40;98112.34;;;2.38;66.78
76195;BME280;64964;48.694;21.206;2023-11-19T09:26:08;98105.69;;;2.34;66.96
76195;BME280;64964;48.694;21.206;2023-11-19T09:28:35;98093.84;;;2.30;67.00
76195;BME280;64964;48.694;21.206;2023-11-19T09:31:00;98100.78;;;2.30;66.97
76195;BME280;64964;48.694;21.206;2023-11-19T09:33:29;98078.16;;;2.19;67.01
76195;BME280;64964;48.694;21.206;2023-11-19T09:35:55;98098.91;;;2.32;67.00
76195;BME280;64964;48.694;21.206;2023-11-19T09:38:20;98080.28;;;2.25;67.08
76195;BME280;64964;48.694;21.206;2023-11-19T09:40:46;98094.53;;;2.32;67.01
76195;BME280;64964;48.694;21.206;2023-11-19T09:43:13;98071.75;;;2.23;67.24
76195;BME280;64964;48.694;21.206;2023-11-19T09:45:49;98094.53;;;2.32;67.24
76195;BME280;64964;48.694;21.206;2023-11-19T09:48:19;98095.50;;;2.31;67.25
76195;BME280;64964;48.694;21.206;2023-11-19T09:50:48;98094.91;;;2.39;67.29
76195;BME280;64964;48.694;21.206;2023-11-19T09:53:14;98082.34;;;2.44;67.50
76195;BME280;64964;48.694;21.206;2023-11-19T09:55:40;98080.09;;;2.39;67.21
76195;BME280;64964;48.694;21.206;2023-11-19T09:58:07;98091.94;;;2.55;67.44
76195;BME280;64964;48.694;21.206;2023-11-19T10:00:33;98089.22;;;2.67;67.43
76195;BME280;64964;48.694;21.206;2023-11-19T10:02:59;98089.00;;;2.82;66.79
76195;BME280;64964;48.694;21.206;2023-11-19T10:05:25;98078.09;;;2.77;66.49
76195;BME280;64964;48.694;21.206;2023-11-19T10:07:52;98102.78;;;2.84;66.71
76195;BME280;64964;48.694;21.206;2023-11-19T10:10:17;98105.97;;;2.87;66.47
76195;BME280;64964;48.694;21.206;2023-11-19T10:12:47;98088.53;;;2.88;67.44
76195;BME280;64964;48.694;21.206;2023-11-19T10:15:23;98080.97;;;2.85;66.93
76195;BME280;64964;48.694;21.206;2023-11-19T10:17:56;98078.56;;;2.82;67.12
76195;BME280;64964;48.694;21.206;2023-11-19T10:20:22;98065.97;;;2.75;67.27
76195;BME280;64964;48.694;21.206;2023-11-19T10:22:47;98026.25;;;2.61;67.66
76195;BME280;64964;48.694;21.206;2023-11-19T10:25:22;98042.38;;;2.66;67.92
76195;BME280;64964;48.694;21.206;2023-11-19T10:27:49;98022.81;;;2.60;68.23
76195;BME280;64964;48.694;21.206;2023-11-19T10:30:22;98025.88;;;2.54;68.30
76195;BME280;64964;48.694;21.206;2023-11-19T10:33:10;98016.75;;;2.48;68.69
76195;BME280;64964;48.694;21.206;2023-11-19T10:36:02;98016.88;;;2.47;68.66
76195;BME280;64964;48.694;21.206;2023-11-19T10:38:27;98021.38;;;2.45;68.59
76195;BME280;64964;48.694;21.206;2023-11-19T10:40:53;98007.72;;;2.41;68.83
76195;BME280;64964;48.694;21.206;2023-11-19T10:43:23;98002.97;;;2.46;68.91
76195;BME280;64964;48.694;21.206;2023-11-19T10:45:49;98000.28;;;2.48;68.79
76195;BME280;64964;48.694;21.206;2023-11-19T10:48:15;98021.72;;;2.63;68.47
76195;BME280;64964;48.694;21.206;2023-11-19T10:50:41;98007.84;;;2.62;68.27
76195;BME280;64964;48.694;21.206;2023-11-19T10:53:08;98008.09;;;2.70;68.24
76195;BME280;64964;48.694;21.206;2023-11-19T10:55:37;98014.84;;;2.73;68.45
76195;BME280;64964;48.694;21.206;2023-11-19T10:58:06;98018.53;;;2.70;68.38
76195;BME280;64964;48.694;21.206;2023-11-19T11:00:44;98004.41;;;2.62;68.23
76195;BME280;64964;48.694;21.206;2023-11-19T11:03:20;97997.44;;;2.51;68.64
76195;BME280;64964;48.694;21.206;2023-11-19T11:05:50;98008.59;;;2.64;68.71
76195;BME280;64964;48.694;21.206;2023-11-19T11:08:16;97988.28;;;2.45;68.85
76195;BME280;64964;48.694;21.206;2023-11-19T11:10:48;97998.63;;;2.47;69.03
76195;BME280;64964;48.694;21.206;2023-11-19T11:13:18;98005.16;;;2.64;69.21
76195;BME280;64964;48.694;21.206;2023-11-19T11:15:44;97974.66;;;2.53;69.25
76195;BME280;64964;48.694;21.206;2023-11-19T11:18:12;98007.34;;;2.80;69.09
76195;BME280;64964;48.694;21.206;2023-11-19T11:20:38;98003.91;;;2.90;68.58
76195;BME280;64964;48.694;21.206;2023-11-19T11:31:20;97995.63;;;2.85;68.78
76195;BME280;64964;48.694;21.206;2023-11-19T11:39:39;97991.31;;;2.95;68.34
76195;BME280;64964;48.694;21.206;2023-11-19T11:45:04;97995.34;;;3.11;68.26
76195;BME280;64964;48.694;21.206;2023-11-19T11:50:13;97982.84;;;3.14;67.89
76195;BME280;64964;48.694;21.206;2023-11-19T11:55:26;97958.75;;;3.11;67.80
76195;BME280;64964;48.694;21.206;2023-11-19T11:57:53;97961.84;;;3.05;67.78
76195;BME280;64964;48.694;21.206;2023-11-19T12:00:26;97967.22;;;3.03;67.76
76195;BME280;64964;48.694;21.206;2023-11-19T12:02:52;97962.22;;;3.00;67.92
76195;BME280;64964;48.694;21.206;2023-11-19T12:05:17;97971.75;;;3.01;67.99
76195;BME280;64964;48.694;21.206;2023-11-19T12:08:01;97959.03;;;2.96;67.96
76195;BME280;64964;48.694;21.206;2023-11-19T12:10:29;97955.72;;;2.94;67.89
76195;BME280;64964;48.694;21.206;2023-11-19T12:13:01;97961.09;;;2.93;68.09
76195;BME280;64964;48.694;21.206;2023-11-19T12:15:27;97931.09;;;2.76;68.26
76195;BME280;64964;48.694;21.206;2023-11-19T12:17:56;97952.75;;;2.88;68.13
76195;BME280;64964;48.694;21.206;2023-11-19T12:20:25;97937.97;;;2.77;68.77
76195;BME280;64964;48.694;21.206;2023-11-19T12:22:51;97942.22;;;2.78;69.12
76195;BME280;64964;48.694;21.206;2023-11-19T12:25:17;97923.75;;;2.70;69.85
76195;BME280;64964;48.694;21.206;2023-11-19T12:27:45;97915.31;;;2.66;70.43
76195;BME280;64964;48.694;21.206;2023-11-19T12:30:11;97898.03;;;2.54;70.17
76195;BME280;64964;48.694;21.206;2023-11-19T12:32:41;97909.88;;;2.58;70.67
76195;BME280;64964;48.694;21.206;2023-11-19T12:35:08;97920.31;;;2.58;70.93
76195;BME280;64964;48.694;21.206;2023-11-19T12:37:39;97900.03;;;2.62;70.66
76195;BME280;64964;48.694;21.206;2023-11-19T12:40:12;97873.38;;;2.47;70.78
76195;BME280;64964;48.694;21.206;2023-11-19T12:42:38;97885.69;;;2.56;71.07
76195;BME280;64964;48.694;21.206;2023-11-19T12:45:04;97894.81;;;2.50;71.32
76195;BME280;64964;48.694;21.206;2023-11-19T12:47:30;97881.06;;;2.48;71.24
76195;BME280;64964;48.694;21.206;2023-11-19T12:49:56;97878.69;;;2.45;71.63
76195;BME280;64964;48.694;21.206;2023-11-19T12:52:22;97872.28;;;2.49;71.74
76195;BME280;64964;48.694;21.206;2023-11-19T12:54:49;97877.28;;;2.53;71.62
76195;BME280;64964;48.694;21.206;2023-11-19T12:57:15;97869.09;;;2.46;71.75
76195;BME280;64964;48.694;21.206;2023-11-19T12:59:40;97866.84;;;2.53;71.08
76195;BME280;64964;48.694;21.206;2023-11-19T13:02:06;97856.91;;;2.35;71.27
76195;BME280;64964;48.694;21.206;2023-11-19T13:04:32;97859.41;;;2.37;71.46
76195;BME280;64964;48.694;21.206;2023-11-19T13:06:58;97852.75;;;2.44;71.54
76195;BME280;64964;48.694;21.206;2023-11-19T13:09:25;97839.69;;;2.44;71.61
76195;BME280;64964;48.694;21.206;2023-11-19T13:11:51;97845.97;;;2.41;71.91
76195;BME280;64964;48.694;21.206;2023-11-19T13:14:18;97835.53;;;2.41;72.14
76195;BME280;64964;48.694;21.206;2023-11-19T13:16:44;97828.44;;;2.43;71.97
76195;BME280;64964;48.694;21.206;2023-11-19T13:19:12;97837.69;;;2.36;72.44